createdAt,value
2023-03-29T00:01:01.869Z,101665.06
2023-03-29T00:03:30.990Z,101665.06
2023-03-29T00:06:03.297Z,101663.31
2023-03-29T00:08:34.209Z,101663.31
2023-03-29T00:11:02.663Z,101662.41
2023-03-29T00:13:31.425Z,101667.72
2023-03-29T00:15:59.578Z,101654.50
2023-03-29T00:18:28.173Z,101658.00
2023-03-29T00:20:57.744Z,101657.16
2023-03-29T00:23:26.659Z,101659.81
2023-03-29T00:25:56.364Z,101649.19
2023-03-29T00:28:25.701Z,101647.41
2023-03-29T00:30:55.064Z,101640.31
2023-03-29T00:33:23.720Z,101638.56
2023-03-29T00:35:53.593Z,101642.97
2023-03-29T00:38:22.311Z,101642.97
2023-03-29T00:40:50.679Z,101640.34
2023-03-29T00:43:19.753Z,101639.47
2023-03-29T00:45:48.108Z,101622.66
2023-03-29T00:48:30.408Z,101620.88
2023-03-29T00:51:04.807Z,101611.97
2023-03-29T00:53:40.568Z,101584.56
2023-03-29T00:56:22.083Z,101578.41
2023-03-29T00:58:55.437Z,101594.31
2023-03-29T01:01:38.306Z,101589.00
2023-03-29T01:04:58.387Z,101583.69
2023-03-29T01:07:31.047Z,101558.03
2023-03-29T01:10:07.047Z,101560.75
2023-03-29T01:12:44.306Z,101550.91
2023-03-29T01:15:16.242Z,101551.78
2023-03-29T01:17:50.633Z,101544.94
2023-03-29T01:20:36.287Z,101556.28
2023-03-29T01:23:07.551Z,101531.47
2023-03-29T01:26:01.438Z,101528.78
2023-03-29T01:28:36.877Z,101547.44
2023-03-29T01:31:11.521Z,101549.19
2023-03-29T01:33:46.898Z,101550.06
2023-03-29T01:36:27.360Z,101543.00
2023-03-29T01:39:05.478Z,101543.91
2023-03-29T01:41:49.762Z,101556.31
2023-03-29T01:44:32.849Z,101560.75
2023-03-29T01:47:12.114Z,101560.75
2023-03-29T01:50:06.981Z,101570.56
2023-03-29T01:52:40.634Z,101571.38
2023-03-29T01:55:17.553Z,101578.53
2023-03-29T01:57:48.045Z,101566.16
2023-03-29T02:00:25.090Z,101557.38
2023-03-29T02:02:57.363Z,101549.38
2023-03-29T02:05:29.183Z,101550.22
2023-03-29T02:08:01.085Z,101548.50
2023-03-29T02:10:30.732Z,101560.00
2023-03-29T02:12:59.838Z,101555.59
2023-03-29T02:15:28.366Z,101553.81
2023-03-29T02:17:57.489Z,101553.03
2023-03-29T02:20:31.763Z,101559.22
2023-03-29T02:23:15.847Z,101560.09
2023-03-29T02:25:45.857Z,101567.16
2023-03-29T02:28:15.154Z,101571.63
2023-03-29T02:31:03.628Z,101572.47
2023-03-29T02:34:02.479Z,101562.75
2023-03-29T02:36:52.154Z,101556.56
2023-03-29T02:39:21.729Z,101554.84
2023-03-29T02:41:51.448Z,101547.75
2023-03-29T02:44:23.410Z,101551.34
2023-03-29T02:46:54.962Z,101554.84
2023-03-29T02:49:24.083Z,101545.13
2023-03-29T02:51:56.286Z,101540.78
2023-03-29T02:54:30.213Z,101553.97
2023-03-29T02:57:01.987Z,101541.69
2023-03-29T02:59:31.125Z,101547.78
2023-03-29T03:02:00.873Z,101554.00
2023-03-29T03:04:30.702Z,101555.81
2023-03-29T03:06:59.095Z,101559.38
2023-03-29T03:09:27.818Z,101554.00
2023-03-29T03:11:56.393Z,101554.94
2023-03-29T03:14:28.574Z,101554.94
2023-03-29T03:16:59.931Z,101557.66
2023-03-29T03:19:30.232Z,101552.31
2023-03-29T03:22:00.119Z,101555.88
2023-03-29T03:24:28.891Z,101540.91
2023-03-29T03:26:58.589Z,101551.44
2023-03-29T03:29:28.592Z,101556.75
2023-03-29T03:32:18.750Z,101554.97
2023-03-29T03:35:10.174Z,101549.69
2023-03-29T03:37:39.357Z,101553.19
2023-03-29T03:40:09.638Z,101553.25
2023-03-29T03:42:39.795Z,101559.41
2023-03-29T03:45:09.957Z,101560.31
2023-03-29T03:47:52.227Z,101560.44
2023-03-29T03:50:41.174Z,101569.19
2023-03-29T03:53:10.007Z,101570.94
2023-03-29T03:55:57.523Z,101567.50
2023-03-29T03:58:31.575Z,101549.88
2023-03-29T04:01:00.508Z,101549.88
2023-03-29T04:03:39.799Z,101542.81
2023-03-29T04:06:11.506Z,101548.06
2023-03-29T04:09:00.023Z,101553.44
2023-03-29T04:11:53.385Z,101553.44
2023-03-29T04:14:21.911Z,101561.38
2023-03-29T04:17:08.207Z,101555.19
2023-03-29T04:19:48.188Z,101555.19
2023-03-29T04:22:17.376Z,101556.09
2023-03-29T04:24:45.885Z,101564.06
2023-03-29T04:27:39.560Z,101557.03
2023-03-29T04:30:17.254Z,101562.34
2023-03-29T04:33:24.087Z,101552.63
2023-03-29T04:36:00.432Z,101567.66
2023-03-29T04:38:29.538Z,101564.06
2023-03-29T04:40:58.420Z,101565.97
2023-03-29T04:43:50.281Z,101583.63
2023-03-29T04:46:26.893Z,101582.72
2023-03-29T04:49:13.651Z,101587.16
2023-03-29T04:51:46.075Z,101582.75
2023-03-29T04:54:14.665Z,101585.41
2023-03-29T04:57:01.129Z,101578.34
2023-03-29T04:59:44.602Z,101574.88
2023-03-29T05:02:22.830Z,101574.88
2023-03-29T05:04:52.870Z,101584.53
2023-03-29T05:07:21.326Z,101584.56
2023-03-29T05:09:51.065Z,101582.00
2023-03-29T05:12:19.332Z,101578.44
2023-03-29T05:14:55.005Z,101582.81
2023-03-29T05:17:27.698Z,101578.44
2023-03-29T05:20:10.464Z,101573.13
2023-03-29T05:22:40.543Z,101574.91
2023-03-29T05:25:13.742Z,101576.72
2023-03-29T05:27:46.087Z,101581.09
2023-03-29T05:30:15.605Z,101573.13
2023-03-29T05:32:53.134Z,101564.41
2023-03-29T05:35:26.449Z,101571.34
2023-03-29T05:37:56.806Z,101574.94
2023-03-29T05:40:26.455Z,101568.72
2023-03-29T05:43:18.156Z,101573.19
2023-03-29T05:45:47.012Z,101578.50
2023-03-29T05:48:15.354Z,101577.69
2023-03-29T05:50:49.385Z,101594.38
2023-03-29T05:53:20.921Z,101588.19
2023-03-29T05:55:51.552Z,101593.56
2023-03-29T05:58:21.871Z,101590.88
2023-03-29T06:00:51.517Z,101588.31
2023-03-29T06:03:53.018Z,101597.94
2023-03-29T06:06:25.940Z,101595.34
2023-03-29T06:08:54.303Z,101598.81
2023-03-29T06:11:33.313Z,101599.75
2023-03-29T06:14:19.714Z,101603.41
2023-03-29T06:16:55.265Z,101605.06
2023-03-29T06:19:24.456Z,101606.91
2023-03-29T06:21:54.596Z,101607.75
2023-03-29T06:24:27.324Z,101613.94
2023-03-29T06:27:03.264Z,101608.63
2023-03-29T06:29:32.475Z,101601.63
2023-03-29T06:32:02.295Z,101599.88
2023-03-29T06:34:52.657Z,101593.78
2023-03-29T06:37:49.616Z,101588.50
2023-03-29T06:40:33.692Z,101607.94
2023-03-29T06:43:02.450Z,101616.03
2023-03-29T06:45:40.860Z,101616.94
2023-03-29T06:48:18.877Z,101622.25
2023-03-29T06:50:48.696Z,101623.94
2023-03-29T06:53:18.447Z,101616.03
2023-03-29T06:55:55.306Z,101630.97
2023-03-29T06:58:45.265Z,101631.03
2023-03-29T07:01:35.023Z,101625.69
2023-03-29T07:04:19.168Z,101629.31
2023-03-29T07:07:12.291Z,101642.50
2023-03-29T07:09:41.038Z,101646.09
2023-03-29T07:12:24.699Z,101636.31
2023-03-29T07:14:56.555Z,101638.19
2023-03-29T07:17:30.220Z,101641.63
2023-03-29T07:19:59.037Z,101648.69
2023-03-29T07:22:44.143Z,101655.75
2023-03-29T07:25:13.295Z,101666.31
2023-03-29T07:27:42.977Z,101672.38
2023-03-29T07:30:18.059Z,101668.81
2023-03-29T07:32:46.696Z,101676.81
2023-03-29T07:35:34.145Z,101672.38
2023-03-29T07:38:03.043Z,101680.25
2023-03-29T07:40:32.220Z,101682.00
2023-03-29T07:43:01.537Z,101676.63
2023-03-29T07:45:34.035Z,101672.25
2023-03-29T07:48:07.367Z,101675.75
2023-03-29T07:50:57.021Z,101674.84
2023-03-29T07:53:31.271Z,101676.63
2023-03-29T07:56:03.627Z,101666.03
2023-03-29T07:58:47.065Z,101674.75
2023-03-29T08:01:19.365Z,101671.19
2023-03-29T08:04:13.137Z,101674.69
2023-03-29T08:07:00.206Z,101669.31
2023-03-29T08:09:45.238Z,101657.09
2023-03-29T08:12:13.841Z,101651.75
2023-03-29T08:14:42.134Z,101658.63
2023-03-29T08:17:19.060Z,101652.59
2023-03-29T08:19:51.838Z,101649.09
2023-03-29T08:22:25.704Z,101649.97
2023-03-29T08:25:20.389Z,101642.72
2023-03-29T08:27:53.750Z,101640.91
2023-03-29T08:30:34.375Z,101635.47
2023-03-29T08:33:04.646Z,101638.13
2023-03-29T08:35:33.078Z,101647.78
2023-03-29T08:38:12.900Z,101642.66
2023-03-29T08:40:41.549Z,101631.63
2023-03-29T08:43:49.689Z,101642.19
2023-03-29T08:47:00.657Z,101644.59
2023-03-29T08:49:51.513Z,101652.41
2023-03-29T08:52:38.787Z,101646.16
2023-03-29T08:55:32.166Z,101641.97
2023-03-29T08:58:29.221Z,101634.91
2023-03-29T09:01:01.097Z,101639.13
2023-03-29T09:03:50.332Z,101636.44
2023-03-29T09:06:31.475Z,101623.97
2023-03-29T09:09:18.268Z,101625.81
2023-03-29T09:12:04.769Z,101634.75
2023-03-29T09:14:48.644Z,101632.22
2023-03-29T09:17:23.556Z,101628.50
2023-03-29T09:20:27.748Z,101630.16
2023-03-29T09:23:02.624Z,101630.50
2023-03-29T09:25:58.919Z,101632.47
2023-03-29T09:29:09.569Z,101620.78
2023-03-29T09:31:45.128Z,101622.34
2023-03-29T09:34:24.215Z,101625.22
2023-03-29T09:37:04.532Z,101620.72
2023-03-29T09:39:33.440Z,101622.34
2023-03-29T09:42:12.911Z,101616.28
2023-03-29T09:44:52.837Z,101617.22
2023-03-29T09:47:30.462Z,101612.59
2023-03-29T09:50:27.284Z,101618.75
2023-03-29T09:52:59.877Z,101610.00
2023-03-29T09:55:34.029Z,101611.72
2023-03-29T09:58:27.741Z,101606.41
2023-03-29T10:01:02.254Z,101602.13
2023-03-29T10:03:32.344Z,101600.56
2023-03-29T10:06:11.217Z,101597.03
2023-03-29T10:08:50.744Z,101597.84
2023-03-29T10:11:29.057Z,101588.97
2023-03-29T10:14:02.233Z,101580.84
2023-03-29T10:16:37.329Z,101587.09
2023-03-29T10:19:35.821Z,101580.09
2023-03-29T10:22:19.106Z,101588.03
2023-03-29T10:24:52.466Z,101576.56
2023-03-29T10:27:27.504Z,101573.94
2023-03-29T10:29:57.417Z,101567.53
2023-03-29T10:32:34.916Z,101558.50
2023-03-29T10:35:38.406Z,101552.50
2023-03-29T10:38:12.364Z,101549.06
2023-03-29T10:40:47.707Z,101539.06
2023-03-29T10:43:35.504Z,101535.69
2023-03-29T10:46:20.976Z,101547.88
2023-03-29T10:49:00.714Z,101543.38
2023-03-29T10:51:32.866Z,101535.25
2023-03-29T10:54:03.103Z,101540.66
2023-03-29T10:56:43.376Z,101537.09
2023-03-29T10:59:34.233Z,101527.38
2023-03-29T11:02:14.695Z,101542.22
2023-03-29T11:05:20.539Z,101531.75
2023-03-29T11:07:59.818Z,101526.44
2023-03-29T11:10:34.750Z,101532.56
2023-03-29T11:13:16.944Z,101517.41
2023-03-29T11:16:03.347Z,101522.59
2023-03-29T11:18:41.915Z,101520.06
2023-03-29T11:21:38.106Z,101517.56
2023-03-29T11:24:31.519Z,101515.53
2023-03-29T11:27:12.140Z,101499.50
2023-03-29T11:29:45.800Z,101488.16
2023-03-29T11:32:20.290Z,101506.75
2023-03-29T11:35:13.918Z,101495.94
2023-03-29T11:38:08.172Z,101496.03
2023-03-29T11:41:27.270Z,101499.50
2023-03-29T11:44:13.881Z,101499.34
2023-03-29T11:47:08.504Z,101505.56
2023-03-29T11:50:06.705Z,101500.38
2023-03-29T11:52:43.861Z,101504.75
2023-03-29T11:55:34.031Z,101508.13
2023-03-29T11:58:19.389Z,101497.50
2023-03-29T12:00:58.840Z,101482.34
2023-03-29T12:03:54.120Z,101488.31
2023-03-29T12:06:32.181Z,101491.81
2023-03-29T12:09:33.610Z,101480.25
2023-03-29T12:12:12.949Z,101475.84
2023-03-29T12:14:58.722Z,101470.41
2023-03-29T12:17:52.185Z,101466.81
2023-03-29T12:20:31.449Z,101461.38
2023-03-29T12:23:07.064Z,101454.34
2023-03-29T12:25:45.476Z,101456.88
2023-03-29T12:28:29.730Z,101456.88
2023-03-29T12:31:17.666Z,101456.84
2023-03-29T12:34:05.234Z,101447.13
2023-03-29T12:37:17.432Z,101454.28
2023-03-29T12:39:49.397Z,101459.72
2023-03-29T12:42:54.852Z,101454.34
2023-03-29T12:45:48.833Z,101444.41
2023-03-29T12:48:29.036Z,101434.59
2023-03-29T12:51:02.738Z,101438.09
2023-03-29T12:53:31.006Z,101437.22
2023-03-29T12:56:03.994Z,101428.47
2023-03-29T12:58:50.757Z,101441.75
2023-03-29T13:01:34.492Z,101428.47
2023-03-29T13:07:05.962Z,101433.66
2023-03-29T13:09:47.921Z,101423.06
2023-03-29T13:12:16.457Z,101413.16
2023-03-29T13:14:54.879Z,101421.16
2023-03-29T13:17:32.179Z,101416.78
2023-03-29T13:20:25.906Z,101421.13
2023-03-29T13:23:00.802Z,101410.38
2023-03-29T13:26:07.872Z,101406.81
2023-03-29T13:29:19.163Z,101396.22
2023-03-29T13:32:16.984Z,101402.50
2023-03-29T13:34:47.509Z,101384.81
2023-03-29T13:37:34.163Z,101398.84
2023-03-29T13:40:05.097Z,101403.19
2023-03-29T13:42:33.361Z,101395.13
2023-03-29T13:45:23.292Z,101394.97
2023-03-29T13:48:05.377Z,101402.00
2023-03-29T13:50:40.557Z,101388.69
2023-03-29T13:53:31.824Z,101379.03
2023-03-29T13:56:00.932Z,101391.66
2023-03-29T13:58:48.213Z,101387.81
2023-03-29T14:01:26.168Z,101391.16
2023-03-29T14:03:56.081Z,101382.44
2023-03-29T14:06:30.615Z,101361.16
2023-03-29T14:09:05.149Z,101363.97
2023-03-29T14:11:35.342Z,101369.09
2023-03-29T14:14:08.697Z,101369.88
2023-03-29T14:16:39.865Z,101360.94
2023-03-29T14:19:26.832Z,101357.59
2023-03-29T14:21:55.678Z,101363.78
2023-03-29T14:24:27.344Z,101362.00
2023-03-29T14:26:56.025Z,101350.44
2023-03-29T14:29:25.555Z,101351.31
2023-03-29T14:31:54.362Z,101354.84
2023-03-29T14:34:23.294Z,101355.63
2023-03-29T14:36:54.300Z,101344.97
2023-03-29T14:39:23.665Z,101354.75
2023-03-29T14:41:54.583Z,101351.06
2023-03-29T14:44:26.208Z,101349.28
2023-03-29T14:46:56.336Z,101359.09
2023-03-29T14:49:24.844Z,101352.03
2023-03-29T14:51:55.020Z,101348.47
2023-03-29T14:54:27.203Z,101356.34
2023-03-29T14:56:56.081Z,101363.41
2023-03-29T14:59:42.301Z,101364.22
2023-03-29T15:02:26.728Z,101363.34
2023-03-29T15:05:24.943Z,101365.88
2023-03-29T15:07:56.465Z,101363.16
2023-03-29T15:10:24.838Z,101350.72
2023-03-29T15:12:54.099Z,101344.34
2023-03-29T15:15:24.467Z,101351.41
2023-03-29T15:17:53.425Z,101349.66
2023-03-29T15:20:25.328Z,101347.91
2023-03-29T15:23:04.766Z,101353.13
2023-03-29T15:25:36.140Z,101349.56
2023-03-29T15:28:31.378Z,101344.34
2023-03-29T15:31:14.477Z,101348.69
2023-03-29T15:33:44.255Z,101351.41
2023-03-29T15:36:14.455Z,101355.69
2023-03-29T15:38:45.225Z,101344.22
2023-03-29T15:41:15.820Z,101341.38
2023-03-29T15:43:45.025Z,101347.59
2023-03-29T15:46:16.947Z,101340.53
2023-03-29T15:48:48.032Z,101345.00
2023-03-29T15:51:16.809Z,101332.63
2023-03-29T15:53:45.582Z,101334.31
2023-03-29T15:56:18.345Z,101331.59
2023-03-29T15:58:48.058Z,101328.06
2023-03-29T16:01:34.907Z,101335.13
2023-03-29T16:04:11.406Z,101334.19
2023-03-29T16:06:41.279Z,101322.72
2023-03-29T16:09:12.278Z,101317.34
2023-03-29T16:11:41.920Z,101318.34
2023-03-29T16:14:21.421Z,101317.41
2023-03-29T16:16:50.632Z,101307.69
2023-03-29T16:19:19.550Z,101312.13
2023-03-29T16:21:48.568Z,101306.88
2023-03-29T16:24:19.985Z,101313.06
2023-03-29T16:26:48.751Z,101319.25
2023-03-29T16:29:18.360Z,101310.44
2023-03-29T16:31:48.068Z,101310.44
2023-03-29T16:34:18.994Z,101306.09
2023-03-29T16:36:48.023Z,101315.88
2023-03-29T16:39:18.465Z,101319.34
2023-03-29T16:41:50.426Z,101305.22
2023-03-29T16:44:23.624Z,101319.34
2023-03-29T16:46:58.589Z,101322.94
2023-03-29T16:49:27.430Z,101322.06
2023-03-29T16:51:56.302Z,101325.13
2023-03-29T16:54:26.046Z,101318.28
2023-03-29T16:56:54.545Z,101336.75
2023-03-29T16:59:23.991Z,101341.41
2023-03-29T17:01:52.420Z,101326.63
2023-03-29T17:04:24.731Z,101331.09
2023-03-29T17:06:53.730Z,101331.19
2023-03-29T17:09:22.462Z,101334.75
2023-03-29T17:11:51.130Z,101335.63
2023-03-29T17:14:19.936Z,101341.94
2023-03-29T17:16:48.246Z,101336.66
2023-03-29T17:19:16.974Z,101339.31
2023-03-29T17:21:46.205Z,101335.84
2023-03-29T17:24:15.099Z,101351.94
2023-03-29T17:26:45.806Z,101346.56
2023-03-29T17:29:14.816Z,101343.94
2023-03-29T17:31:48.915Z,101338.78
2023-03-29T17:34:19.366Z,101347.66
2023-03-29T17:36:49.124Z,101356.47
2023-03-29T17:39:19.007Z,101356.56
2023-03-29T17:41:47.632Z,101357.53
2023-03-29T17:44:16.288Z,101359.41
2023-03-29T17:46:44.651Z,101369.25
2023-03-29T17:49:14.312Z,101367.28
2023-03-29T17:51:42.802Z,101364.59
2023-03-29T17:54:12.317Z,101372.31
2023-03-29T17:56:41.038Z,101367.88
2023-03-29T17:59:09.800Z,101372.22
2023-03-29T18:01:39.446Z,101388.06
2023-03-29T18:04:08.963Z,101378.34
2023-03-29T18:06:37.580Z,101397.09
2023-03-29T18:09:06.390Z,101396.97
2023-03-29T18:11:36.584Z,101410.25
2023-03-29T18:14:05.634Z,101407.59
2023-03-29T18:16:34.306Z,101412.19
2023-03-29T18:19:03.353Z,101421.81
2023-03-29T18:21:31.695Z,101414.78
2023-03-29T18:24:00.841Z,101417.38
2023-03-29T18:26:30.027Z,101428.00
2023-03-29T18:28:58.820Z,101427.13
2023-03-29T18:31:28.335Z,101428.09
2023-03-29T18:33:57.455Z,101430.75
2023-03-29T18:36:26.338Z,101426.41
2023-03-29T18:38:56.313Z,101441.38
2023-03-29T18:41:24.817Z,101437.84
2023-03-29T18:43:57.905Z,101443.22
2023-03-29T18:46:30.626Z,101442.41
2023-03-29T18:49:01.931Z,101454.56
2023-03-29T18:51:31.495Z,101451.75
2023-03-29T18:54:00.684Z,101461.34
2023-03-29T18:56:29.052Z,101460.44
2023-03-29T18:58:57.735Z,101463.84
2023-03-29T19:01:26.341Z,101470.97
2023-03-29T19:03:56.469Z,101461.31
2023-03-29T19:06:25.266Z,101466.50
2023-03-29T19:08:55.495Z,101467.38
2023-03-29T19:11:24.828Z,101468.31
2023-03-29T19:13:55.726Z,101467.38
2023-03-29T19:16:24.317Z,101467.38
2023-03-29T19:18:56.135Z,101470.97
2023-03-29T19:21:24.966Z,101466.41
2023-03-29T19:23:54.688Z,101465.56
2023-03-29T19:26:23.605Z,101469.09
2023-03-29T19:28:54.876Z,101476.16
2023-03-29T19:31:23.795Z,101475.25
2023-03-29T19:33:55.282Z,101474.34
2023-03-29T19:36:26.333Z,101483.19
2023-03-29T19:38:55.901Z,101473.50
2023-03-29T19:41:24.882Z,101473.47
2023-03-29T19:43:55.040Z,101476.94
2023-03-29T19:46:27.933Z,101492.13
2023-03-29T19:49:00.121Z,101488.56
2023-03-29T19:51:29.367Z,101477.03
2023-03-29T19:53:58.571Z,101481.63
2023-03-29T19:56:28.858Z,101491.44
2023-03-29T19:58:58.651Z,101491.47
2023-03-29T20:01:29.558Z,101499.47
2023-03-29T20:04:00.262Z,101495.94
2023-03-29T20:06:31.113Z,101494.19
2023-03-29T20:09:06.476Z,101495.84
2023-03-29T20:11:36.396Z,101489.75
2023-03-29T20:14:07.918Z,101492.34
2023-03-29T20:16:39.855Z,101499.41
2023-03-29T20:19:10.857Z,101506.56
2023-03-29T20:21:40.903Z,101498.63
2023-03-29T20:24:12.573Z,101509.31
2023-03-29T20:26:41.509Z,101513.72
2023-03-29T20:29:10.477Z,101515.47
2023-03-29T20:31:39.333Z,101517.25
2023-03-29T20:34:08.227Z,101513.72
2023-03-29T20:36:37.369Z,101504.97
2023-03-29T20:39:08.181Z,101521.75
2023-03-29T20:41:38.435Z,101520.88
2023-03-29T20:44:07.562Z,101523.53
2023-03-29T20:46:37.897Z,101522.63
2023-03-29T20:49:10.652Z,101519.06
2023-03-29T20:51:39.793Z,101518.22
2023-03-29T20:54:10.203Z,101527.94
2023-03-29T20:56:42.633Z,101529.69
2023-03-29T20:59:11.391Z,101539.47
2023-03-29T21:01:40.990Z,101536.94
2023-03-29T21:04:11.035Z,101540.41
2023-03-29T21:06:41.697Z,101535.09
2023-03-29T21:09:10.355Z,101536.94
2023-03-29T21:11:38.805Z,101544.00
2023-03-29T21:14:09.612Z,101540.59
2023-03-29T21:16:41.906Z,101544.09
2023-03-29T21:19:10.527Z,101542.34
2023-03-29T21:21:41.588Z,101544.19
2023-03-29T21:24:11.144Z,101535.41
2023-03-29T21:26:40.874Z,101536.28
2023-03-29T21:29:09.410Z,101540.72
2023-03-29T21:31:37.928Z,101534.50
2023-03-29T21:34:06.698Z,101522.16
2023-03-29T21:36:35.221Z,101517.78
2023-03-29T21:39:04.292Z,101521.28
2023-03-29T21:41:32.791Z,101531.03
2023-03-29T21:44:01.378Z,101531.13
2023-03-29T21:46:29.691Z,101533.78
2023-03-29T21:48:58.501Z,101531.91
2023-03-29T21:51:27.230Z,101537.22
2023-03-29T21:53:55.908Z,101531.91
2023-03-29T21:56:24.217Z,101540.81
2023-03-29T21:58:52.842Z,101540.72
2023-03-29T22:01:21.074Z,101530.97
2023-03-29T22:03:49.563Z,101530.09
2023-03-29T22:06:17.922Z,101533.66
2023-03-29T22:08:46.969Z,101523.09
2023-03-29T22:11:16.521Z,101523.97
2023-03-29T22:13:45.467Z,101522.16
2023-03-29T22:16:16.865Z,101528.34
2023-03-29T22:18:49.656Z,101520.50
2023-03-29T22:21:26.831Z,101517.78
2023-03-29T22:23:56.674Z,101523.94
2023-03-29T22:26:28.178Z,101522.16
2023-03-29T22:28:57.690Z,101517.69
2023-03-29T22:31:28.488Z,101512.38
2023-03-29T22:33:58.617Z,101517.69
2023-03-29T22:36:29.239Z,101522.16
2023-03-29T22:38:57.921Z,101509.75
2023-03-29T22:41:28.238Z,101511.56
2023-03-29T22:43:58.578Z,101515.09
2023-03-29T22:46:27.407Z,101520.41
2023-03-29T22:48:56.021Z,101519.50
2023-03-29T22:51:24.186Z,101510.69
2023-03-29T22:53:52.798Z,101513.28
2023-03-29T22:56:22.340Z,101503.56
2023-03-29T22:58:51.309Z,101496.59
2023-03-29T23:01:19.545Z,101522.19
2023-03-29T23:03:48.148Z,101531.09
2023-03-29T23:06:16.765Z,101523.97
2023-03-29T23:08:45.310Z,101514.22
2023-03-29T23:11:13.539Z,101521.38
2023-03-29T23:13:42.476Z,101506.38
2023-03-29T23:16:10.758Z,101529.34
2023-03-29T23:18:39.412Z,101528.50
2023-03-29T23:21:09.200Z,101531.13
2023-03-29T23:23:38.477Z,101528.44
2023-03-29T23:26:09.304Z,101531.13
2023-03-29T23:28:38.148Z,101541.72
2023-03-29T23:31:12.273Z,101546.22
2023-03-29T23:33:42.931Z,101544.47
2023-03-29T23:36:17.005Z,101536.53
2023-03-29T23:38:47.020Z,101539.25
2023-03-29T23:41:17.890Z,101546.31
2023-03-29T23:43:50.333Z,101546.31
2023-03-29T23:46:19.141Z,101548.06
2023-03-29T23:48:49.351Z,101542.72
2023-03-29T23:51:18.943Z,101555.13
2023-03-29T23:53:48.013Z,101556.91
2023-03-29T23:56:16.422Z,101551.63
2023-03-29T23:58:45.298Z,101540.16
